createdAt,value
2018-04-02T00:00:47.403Z,11.50
2018-04-02T00:03:16.311Z,11.50
2018-04-02T00:05:45.377Z,11.50
2018-04-02T00:08:14.340Z,11.50
2018-04-02T00:10:43.383Z,11.50
2018-04-02T00:13:12.619Z,11.40
2018-04-02T00:15:41.684Z,11.40
2018-04-02T00:18:10.589Z,11.40
2018-04-02T00:20:39.536Z,11.40
2018-04-02T00:23:09.191Z,11.30
2018-04-02T00:25:38.254Z,11.40
2018-04-02T00:28:07.246Z,11.40
2018-04-02T00:30:36.346Z,11.40
2018-04-02T00:33:05.461Z,11.40
2018-04-02T00:35:36.915Z,11.30
2018-04-02T00:38:06.624Z,11.30
2018-04-02T00:40:35.514Z,11.30
2018-04-02T00:43:04.519Z,11.20
2018-04-02T00:45:34.182Z,11.20
2018-04-02T00:48:03.199Z,11.20
2018-04-02T00:50:32.183Z,11.20
2018-04-02T00:53:01.262Z,11.20
2018-04-02T00:55:30.355Z,11.20
2018-04-02T00:57:59.617Z,11.10
2018-04-02T01:00:28.469Z,11.20
2018-04-02T01:02:57.335Z,11.20
2018-04-02T01:05:26.340Z,11.10
2018-04-02T01:07:55.421Z,11.20
2018-04-02T01:10:24.298Z,11.20
2018-04-02T01:12:53.418Z,11.20
2018-04-02T01:15:22.378Z,11.20
2018-04-02T01:17:51.219Z,11.20
2018-04-02T01:20:20.210Z,11.20
2018-04-02T01:22:49.099Z,11.20
2018-04-02T01:25:18.177Z,11.10
2018-04-02T01:27:46.994Z,11.10
2018-04-02T01:30:16.032Z,11.20
2018-04-02T01:32:44.925Z,11.20
2018-04-02T01:35:14.348Z,11.20
2018-04-02T01:37:43.241Z,11.20
2018-04-02T01:40:12.301Z,11.20
2018-04-02T01:42:42.329Z,11.00
2018-04-02T01:45:11.896Z,11.00
2018-04-02T01:47:41.008Z,11.00
2018-04-02T01:50:09.914Z,11.10
2018-04-02T01:52:38.918Z,11.30
2018-04-02T01:55:07.750Z,11.20
2018-04-02T01:57:36.801Z,11.20
2018-04-02T02:00:06.109Z,11.10
2018-04-02T02:02:35.106Z,11.10
2018-04-02T02:05:03.986Z,11.10
2018-04-02T02:07:33.390Z,11.20
2018-04-02T02:10:02.235Z,11.10
2018-04-02T02:12:31.104Z,11.10
2018-04-02T02:14:59.937Z,11.00
2018-04-02T02:17:28.882Z,10.90
2018-04-02T02:19:57.715Z,10.80
2018-04-02T02:22:27.040Z,10.90
2018-04-02T02:24:55.874Z,10.90
2018-04-02T02:27:24.735Z,11.00
2018-04-02T02:29:53.805Z,11.10
2018-04-02T02:32:23.410Z,11.00
2018-04-02T02:34:52.441Z,11.00
2018-04-02T02:37:21.308Z,11.00
2018-04-02T02:39:50.237Z,11.00
2018-04-02T02:42:19.400Z,11.00
2018-04-02T02:44:48.301Z,11.00
2018-04-02T02:47:17.779Z,11.00
2018-04-02T02:49:47.393Z,11.00
2018-04-02T02:52:16.242Z,11.00
2018-04-02T02:54:46.175Z,11.10
2018-04-02T02:57:15.065Z,11.10
2018-04-02T02:59:44.116Z,11.00
2018-04-02T03:02:12.965Z,11.00
2018-04-02T03:04:41.841Z,11.00
2018-04-02T03:07:11.503Z,11.00
2018-04-02T03:09:40.361Z,11.00
2018-04-02T03:12:09.273Z,11.00
2018-04-02T03:14:38.165Z,11.00
2018-04-02T03:17:07.139Z,11.10
2018-04-02T03:19:36.255Z,11.10
2018-04-02T03:22:05.207Z,11.10
2018-04-02T03:24:35.025Z,11.20
2018-04-02T03:27:04.685Z,11.10
2018-04-02T03:29:33.473Z,11.20
2018-04-02T03:32:02.441Z,11.10
2018-04-02T03:34:31.263Z,11.00
2018-04-02T03:37:00.247Z,11.00
2018-04-02T03:39:29.032Z,11.00
2018-04-02T03:41:57.825Z,11.00
2018-04-02T03:44:26.876Z,11.00
2018-04-02T03:46:56.741Z,11.00
2018-04-02T03:49:26.446Z,11.00
2018-04-02T03:51:55.752Z,11.00
2018-04-02T03:54:24.761Z,11.00
2018-04-02T03:56:54.018Z,11.00
2018-04-02T03:59:23.002Z,11.10
2018-04-02T04:01:52.096Z,11.10
2018-04-02T04:04:20.983Z,11.00
2018-04-02T04:06:50.695Z,11.10
2018-04-02T04:09:19.620Z,11.10
2018-04-02T04:11:49.333Z,11.00
2018-04-02T04:14:18.215Z,11.00
2018-04-02T04:16:47.173Z,11.10
2018-04-02T04:19:16.053Z,11.10
2018-04-02T04:21:44.998Z,11.20
2018-04-02T04:24:13.942Z,11.20
2018-04-02T04:26:43.156Z,11.20
2018-04-02T04:29:12.078Z,11.20
2018-04-02T04:31:41.794Z,11.30
2018-04-02T04:34:11.513Z,11.20
2018-04-02T04:36:40.399Z,11.20
2018-04-02T04:39:09.280Z,11.30
2018-04-02T04:41:38.435Z,11.50
2018-04-02T04:44:08.098Z,11.50
2018-04-02T04:46:36.950Z,11.50
2018-04-02T04:49:05.813Z,11.50
2018-04-02T04:51:35.106Z,11.50
2018-04-02T04:54:04.037Z,11.50
2018-04-02T04:56:32.957Z,11.50
2018-04-02T04:59:02.036Z,11.60
2018-04-02T05:01:31.030Z,11.60
2018-04-02T05:03:59.954Z,11.60
2018-04-02T05:06:28.829Z,11.60
2018-04-02T05:08:58.809Z,11.70
2018-04-02T05:11:27.630Z,11.70
2018-04-02T05:13:56.719Z,11.80
2018-04-02T05:16:25.976Z,11.90
2018-04-02T05:18:54.867Z,12.00
2018-04-02T05:21:24.663Z,12.00
2018-04-02T05:23:53.873Z,12.00
2018-04-02T05:26:22.961Z,12.00
2018-04-02T05:28:51.858Z,12.00
2018-04-02T05:31:20.851Z,12.00
2018-04-02T05:33:50.461Z,12.10
2018-04-02T05:36:19.450Z,12.10
2018-04-02T05:38:48.326Z,12.20
2018-04-02T05:41:17.161Z,12.20
2018-04-02T05:43:46.226Z,12.40
2018-04-02T05:46:15.744Z,12.50
2018-04-02T05:48:44.627Z,12.60
2018-04-02T05:51:13.553Z,12.80
2018-04-02T05:53:42.549Z,13.10
2018-04-02T05:56:12.244Z,13.40
2018-04-02T05:58:41.377Z,13.40
2018-04-02T06:01:10.555Z,13.60
2018-04-02T06:03:39.654Z,13.70
2018-04-02T06:06:08.879Z,13.70
2018-04-02T06:08:37.772Z,13.80
2018-04-02T06:11:07.007Z,14.00
2018-04-02T06:13:36.705Z,14.40
2018-04-02T06:16:05.589Z,14.30
2018-04-02T06:18:34.768Z,14.30
2018-04-02T06:21:04.508Z,14.90
2018-04-02T06:23:33.876Z,14.80
2018-04-02T06:26:02.740Z,15.10
2018-04-02T06:28:31.998Z,15.30
2018-04-02T06:31:01.688Z,14.80
2018-04-02T06:33:30.809Z,14.80
2018-04-02T06:35:59.854Z,14.50
2018-04-02T06:38:28.887Z,14.70
2018-04-02T06:40:57.758Z,15.10
2018-04-02T06:43:26.618Z,15.60
2018-04-02T06:45:55.512Z,16.00
2018-04-02T06:48:24.733Z,16.40
2018-04-02T06:50:53.932Z,16.50
2018-04-02T06:53:23.549Z,16.60
2018-04-02T06:55:52.393Z,16.60
2018-04-02T06:58:21.466Z,16.30
2018-04-02T07:00:50.593Z,16.80
2018-04-02T07:03:19.540Z,17.10
2018-04-02T07:05:49.451Z,16.70
2018-04-02T07:08:18.328Z,16.70
2018-04-02T07:10:47.946Z,15.90
2018-04-02T07:13:17.272Z,15.90
2018-04-02T07:15:46.094Z,16.20
2018-04-02T07:18:14.991Z,16.80
2018-04-02T07:20:44.101Z,17.10
2018-04-02T07:23:12.965Z,16.90
2018-04-02T07:25:42.674Z,17.10
2018-04-02T07:28:11.617Z,17.00
2018-04-02T07:30:41.374Z,17.00
2018-04-02T07:33:10.311Z,16.90
2018-04-02T07:35:39.912Z,17.20
2018-04-02T07:38:08.782Z,17.10
2018-04-02T07:40:38.432Z,17.50
2018-04-02T07:43:07.373Z,17.40
2018-04-02T07:45:36.249Z,16.50
2018-04-02T07:48:05.177Z,17.00
2018-04-02T07:50:34.128Z,17.90
2018-04-02T07:53:03.117Z,17.70
2018-04-02T07:55:32.443Z,18.20
2018-04-02T07:58:01.332Z,17.10
2018-04-02T08:00:30.322Z,17.00
2018-04-02T08:02:59.475Z,18.00
2018-04-02T08:05:28.457Z,17.40
2018-04-02T08:07:57.752Z,16.60
2018-04-02T08:10:27.470Z,15.90
2018-04-02T08:12:57.116Z,15.60
2018-04-02T08:15:26.107Z,15.60
2018-04-02T08:17:55.097Z,16.10
2018-04-02T08:20:24.007Z,17.30
2018-04-02T08:22:53.056Z,18.30
2018-04-02T08:25:22.874Z,19.00
2018-04-02T08:27:52.610Z,18.00
2018-04-02T08:30:21.531Z,18.00
2018-04-02T08:32:50.662Z,18.40
2018-04-02T08:35:19.526Z,18.90
2018-04-02T08:37:48.626Z,19.20
2018-04-02T08:40:17.780Z,19.20
2018-04-02T08:42:46.718Z,17.80
2018-04-02T08:45:16.462Z,18.20
2018-04-02T08:47:46.127Z,18.60
2018-04-02T08:50:15.785Z,18.20
2018-04-02T08:52:44.705Z,18.10
2018-04-02T08:55:13.496Z,17.40
2018-04-02T08:57:42.672Z,17.60
2018-04-02T09:00:11.628Z,17.40
2018-04-02T09:02:40.564Z,18.20
2018-04-02T09:05:09.590Z,18.20
2018-04-02T09:07:39.366Z,18.80
2018-04-02T09:10:08.194Z,18.80
2018-04-02T09:12:37.048Z,18.50
2018-04-02T09:15:06.296Z,18.30
2018-04-02T09:17:35.230Z,18.60
2018-04-02T09:20:04.216Z,19.00
2018-04-02T09:22:33.483Z,19.10
2018-04-02T09:25:03.110Z,19.40
2018-04-02T09:27:32.141Z,19.40
2018-04-02T09:30:01.093Z,19.20
2018-04-02T09:32:31.205Z,19.10
2018-04-02T09:35:00.470Z,19.10
2018-04-02T09:37:30.314Z,18.80
2018-04-02T09:39:59.270Z,18.80
2018-04-02T09:42:28.181Z,19.40
2018-04-02T09:44:57.102Z,18.90
2018-04-02T09:47:25.978Z,18.70
2018-04-02T09:49:55.074Z,19.10
2018-04-02T09:52:24.816Z,19.60
2018-04-02T09:54:53.737Z,19.60
2018-04-02T09:57:22.684Z,19.40
2018-04-02T09:59:51.657Z,19.70
2018-04-02T10:02:22.272Z,19.40
2018-04-02T10:05:01.196Z,19.40
2018-04-02T10:07:30.024Z,20.30
2018-04-02T10:09:59.267Z,20.40
2018-04-02T10:12:28.375Z,19.60
2018-04-02T10:14:57.645Z,19.80
2018-04-02T10:17:26.807Z,19.20
2018-04-02T10:19:55.766Z,18.40
2018-04-02T10:22:25.415Z,19.00
2018-04-02T10:24:54.475Z,19.00
2018-04-02T10:27:23.362Z,18.40
2018-04-02T10:29:52.311Z,18.10
2018-04-02T10:32:21.556Z,18.40
2018-04-02T10:34:50.512Z,19.10
2018-04-02T10:37:19.403Z,18.90
2018-04-02T10:39:48.638Z,18.40
2018-04-02T10:42:17.831Z,17.80
2018-04-02T10:44:47.468Z,17.40
2018-04-02T10:47:16.568Z,17.30
2018-04-02T10:49:46.377Z,18.60
2018-04-02T10:52:15.992Z,18.80
2018-04-02T10:54:45.670Z,19.10
2018-04-02T10:57:15.478Z,19.20
2018-04-02T10:59:44.706Z,19.20
2018-04-02T11:02:13.738Z,19.10
2018-04-02T11:04:42.773Z,19.50
2018-04-02T11:07:12.337Z,19.60
2018-04-02T11:09:41.185Z,19.60
2018-04-02T11:12:10.828Z,19.90
2018-04-02T11:14:40.001Z,19.80
2018-04-02T11:17:08.947Z,20.00
2018-04-02T11:19:37.839Z,19.90
2018-04-02T11:22:06.840Z,19.60
2018-04-02T11:24:35.812Z,19.80
2018-04-02T11:27:04.793Z,19.50
2018-04-02T11:29:34.505Z,20.10
2018-04-02T11:32:03.601Z,20.10
2018-04-02T11:34:32.585Z,19.90
2018-04-02T11:37:01.489Z,20.00
2018-04-02T11:39:30.372Z,20.80
2018-04-02T11:41:59.221Z,20.50
2018-04-02T11:44:28.909Z,20.20
2018-04-02T11:46:57.796Z,20.20
2018-04-02T11:49:27.743Z,20.80
2018-04-02T11:51:56.654Z,20.80
2018-04-02T11:54:25.522Z,20.40
2018-04-02T11:56:54.639Z,20.50
2018-04-02T11:59:23.704Z,20.50
2018-04-02T12:01:53.710Z,20.10
2018-04-02T12:04:22.837Z,20.00
2018-04-02T12:06:52.549Z,20.90
2018-04-02T12:09:22.387Z,20.80
2018-04-02T12:11:51.414Z,20.80
2018-04-02T12:14:20.327Z,21.00
2018-04-02T12:16:49.500Z,20.80
2018-04-02T12:19:18.533Z,20.30
2018-04-02T12:21:48.316Z,19.10
2018-04-02T12:24:17.257Z,18.60
2018-04-02T12:26:47.341Z,18.10
2018-04-02T12:29:16.354Z,17.90
2018-04-02T12:31:45.229Z,18.00
2018-04-02T12:34:14.131Z,18.50
2018-04-02T12:36:44.876Z,19.00
2018-04-02T12:39:14.007Z,19.40
2018-04-02T12:41:44.707Z,19.50
2018-04-02T12:44:15.165Z,19.60
2018-04-02T12:46:44.113Z,19.70
2018-04-02T12:49:13.722Z,19.70
2018-04-02T12:51:42.885Z,19.60
2018-04-02T12:54:11.852Z,19.60
2018-04-02T12:56:41.857Z,19.50
2018-04-02T12:59:10.869Z,19.50
2018-04-02T13:01:39.779Z,19.70
2018-04-02T13:04:08.662Z,19.60
2018-04-02T13:06:38.347Z,19.60
2018-04-02T13:09:07.325Z,19.50
2018-04-02T13:11:36.241Z,19.30
2018-04-02T13:14:05.137Z,19.30
2018-04-02T13:16:34.063Z,19.40
2018-04-02T13:19:03.853Z,19.30
2018-04-02T13:21:33.836Z,19.30
2018-04-02T13:24:02.730Z,19.30
2018-04-02T13:26:32.644Z,19.20
2018-04-02T13:29:01.798Z,19.20
2018-04-02T13:31:31.467Z,19.30
2018-04-02T13:34:00.427Z,19.20
2018-04-02T13:36:29.435Z,19.30
2018-04-02T13:38:58.280Z,19.40
2018-04-02T13:41:27.169Z,19.30
2018-04-02T13:43:56.969Z,19.00
2018-04-02T13:46:26.626Z,19.10
2018-04-02T13:48:55.612Z,19.00
2018-04-02T13:51:24.668Z,19.10
2018-04-02T13:53:54.361Z,19.10
2018-04-02T13:56:23.207Z,19.00
2018-04-02T13:58:52.141Z,18.90
2018-04-02T14:01:21.073Z,18.80
2018-04-02T14:03:51.180Z,18.60
2018-04-02T14:06:20.990Z,18.60
2018-04-02T14:08:51.323Z,18.60
2018-04-02T14:11:20.986Z,18.50
2018-04-02T14:13:50.725Z,18.60
2018-04-02T14:16:19.625Z,18.60
2018-04-02T14:18:49.424Z,18.80
2018-04-02T14:21:19.375Z,18.80
2018-04-02T14:23:48.325Z,18.80
2018-04-02T14:26:17.239Z,18.60
2018-04-02T14:28:46.618Z,18.50
2018-04-02T14:31:15.686Z,18.40
2018-04-02T14:33:44.573Z,18.30
2018-04-02T14:36:13.577Z,18.40
2018-04-02T14:38:42.496Z,18.40
2018-04-02T14:41:11.341Z,18.30
2018-04-02T14:43:40.207Z,18.20
2018-04-02T14:46:09.362Z,18.40
2018-04-02T14:48:38.313Z,18.30
2018-04-02T14:51:07.260Z,18.30
2018-04-02T14:53:36.225Z,18.20
2018-04-02T14:56:05.107Z,18.20
2018-04-02T14:58:34.017Z,18.30
2018-04-02T15:01:03.134Z,18.10
2018-04-02T15:03:32.896Z,18.00
2018-04-02T15:06:01.838Z,18.00
2018-04-02T15:08:30.872Z,18.00
2018-04-02T15:10:59.934Z,17.90
2018-04-02T15:13:28.840Z,18.00
2018-04-02T15:15:57.750Z,18.00
2018-04-02T15:18:26.693Z,17.90
2018-04-02T15:20:56.407Z,17.80
2018-04-02T15:23:26.050Z,17.80
2018-04-02T15:25:54.898Z,17.80
2018-04-02T15:28:24.537Z,17.80
2018-04-02T15:30:54.215Z,17.70
2018-04-02T15:33:23.225Z,17.70
2018-04-02T15:35:52.196Z,17.60
2018-04-02T15:38:21.798Z,17.50
2018-04-02T15:40:51.474Z,17.60
2018-04-02T15:43:20.374Z,17.60
2018-04-02T15:45:49.616Z,17.50
2018-04-02T15:48:19.272Z,17.10
2018-04-02T15:50:48.949Z,17.00
2018-04-02T15:53:17.949Z,16.90
2018-04-02T15:55:47.029Z,16.80
2018-04-02T15:58:16.568Z,16.70
2018-04-02T16:00:45.608Z,16.50
2018-04-02T16:03:15.543Z,16.20
2018-04-02T16:05:44.512Z,16.10
2018-04-02T16:21:13.397Z,16.00
2018-04-02T16:23:43.120Z,14.80
2018-04-02T16:26:12.785Z,14.70
2018-04-02T16:28:41.784Z,14.70
2018-04-02T16:31:10.876Z,14.60
2018-04-02T16:33:39.752Z,14.50
2018-04-02T16:36:08.621Z,14.40
2018-04-02T16:38:37.506Z,14.30
2018-04-02T16:41:06.443Z,14.20
2018-04-02T16:43:35.533Z,14.10
2018-04-02T16:46:04.621Z,14.10
2018-04-02T16:48:33.681Z,13.90
2018-04-02T16:51:03.274Z,13.90
2018-04-02T16:53:32.526Z,13.80
2018-04-02T16:56:01.434Z,13.70
2018-04-02T16:58:31.323Z,13.50
2018-04-02T17:01:00.356Z,13.50
2018-04-02T17:03:29.475Z,13.40
2018-04-02T17:05:58.373Z,13.40
2018-04-02T17:08:27.457Z,13.30
2018-04-02T17:10:56.562Z,13.10
2018-04-02T17:13:25.421Z,13.10
2018-04-02T17:15:55.130Z,12.90
2018-04-02T17:18:24.796Z,12.90
2018-04-02T17:20:54.490Z,12.90
2018-04-02T17:23:30.966Z,12.90
2018-04-02T17:26:00.034Z,12.80
2018-04-02T17:28:29.014Z,12.70
2018-04-02T17:30:57.919Z,12.70
2018-04-02T17:33:27.594Z,12.70
2018-04-02T17:35:57.473Z,12.50
2018-04-02T17:38:26.383Z,12.50
2018-04-02T17:40:55.509Z,12.40
2018-04-02T17:43:24.458Z,12.40
2018-04-02T17:45:53.378Z,12.20
2018-04-02T17:48:22.242Z,12.10
2018-04-02T17:50:51.156Z,12.00
2018-04-02T17:53:24.085Z,11.70
2018-04-02T17:55:53.133Z,11.70
2018-04-02T17:58:22.169Z,11.60
2018-04-02T18:00:51.361Z,11.50
2018-04-02T18:03:20.778Z,11.50
2018-04-02T18:05:50.963Z,11.30
2018-04-02T18:08:20.721Z,11.30
2018-04-02T18:10:49.679Z,11.20
2018-04-02T18:13:19.381Z,11.10
2018-04-02T18:15:49.114Z,11.00
2018-04-02T18:18:18.089Z,11.00
2018-04-02T18:20:47.155Z,11.00
2018-04-02T18:23:16.034Z,10.90
2018-04-02T18:25:44.909Z,10.80
2018-04-02T18:28:19.262Z,10.90
2018-04-02T18:30:48.304Z,10.90
2018-04-02T18:33:18.202Z,10.70
2018-04-02T18:35:48.235Z,10.60
2018-04-02T18:38:17.966Z,10.50
2018-04-02T18:40:46.908Z,10.50
2018-04-02T18:43:16.822Z,10.40
2018-04-02T18:45:46.386Z,10.40
2018-04-02T18:48:15.476Z,10.40
2018-04-02T18:50:44.308Z,10.30
2018-04-02T18:53:13.230Z,10.30
2018-04-02T18:55:42.324Z,10.20
2018-04-02T18:58:11.235Z,10.20
2018-04-02T19:00:40.170Z,10.10
2018-04-02T19:03:11.424Z,10.20
2018-04-02T19:05:40.667Z,10.20
2018-04-02T19:08:09.559Z,10.20
2018-04-02T19:10:38.577Z,10.10
2018-04-02T19:13:07.576Z,10.10
2018-04-02T19:15:36.639Z,10.10
2018-04-02T19:18:06.249Z,10.00
2018-04-02T19:20:35.125Z,10.00
2018-04-02T19:23:04.281Z,10.10
2018-04-02T19:25:33.936Z,10.10
2018-04-02T19:28:02.873Z,10.10
2018-04-02T19:30:32.097Z,10.10
2018-04-02T19:33:01.974Z,10.00
2018-04-02T19:35:30.849Z,10.00
2018-04-02T19:37:59.795Z,9.90
2018-04-02T19:40:28.725Z,9.90
2018-04-02T19:42:57.704Z,9.90
2018-04-02T19:45:33.426Z,9.80
2018-04-02T19:48:06.251Z,9.60
2018-04-02T19:50:43.245Z,9.60
2018-04-02T19:53:16.535Z,9.50
2018-04-02T19:55:47.453Z,9.40
2018-04-02T19:58:19.492Z,9.40
2018-04-02T20:00:54.541Z,9.20
2018-04-02T20:03:28.140Z,9.10
2018-04-02T20:06:04.324Z,8.90
2018-04-02T20:08:38.546Z,8.80
2018-04-02T20:11:12.578Z,8.80
2018-04-02T20:13:44.928Z,8.70
2018-04-02T20:16:19.878Z,8.70
2018-04-02T20:18:56.798Z,8.60
2018-04-02T20:21:30.167Z,8.60
2018-04-02T20:24:06.938Z,8.60
2018-04-02T20:26:39.756Z,8.60
2018-04-02T20:29:14.868Z,8.60
2018-04-02T20:31:48.971Z,8.60
2018-04-02T20:34:23.579Z,8.60
2018-04-02T20:36:59.866Z,8.50
2018-04-02T20:39:36.862Z,8.50
2018-04-02T20:42:11.027Z,8.40
2018-04-02T20:44:41.334Z,8.40
2018-04-02T20:47:10.385Z,8.40
2018-04-02T20:49:40.565Z,8.40
2018-04-02T20:52:09.445Z,8.50
2018-04-02T20:54:38.268Z,8.50
2018-04-02T20:57:07.314Z,8.40
2018-04-02T20:59:37.068Z,8.40
2018-04-02T21:02:05.956Z,8.40
2018-04-02T21:04:34.975Z,8.40
2018-04-02T21:07:03.880Z,8.40
2018-04-02T21:09:33.526Z,8.30
2018-04-02T21:12:02.736Z,8.30
2018-04-02T21:14:31.696Z,8.20
2018-04-02T21:17:00.592Z,8.10
2018-04-02T21:19:29.509Z,8.10
2018-04-02T21:21:58.387Z,8.00
2018-04-02T21:24:27.273Z,8.00
2018-04-02T21:26:56.215Z,8.00
2018-04-02T21:29:25.152Z,8.00
2018-04-02T21:31:54.016Z,8.00
2018-04-02T21:34:23.692Z,7.90
2018-04-02T21:36:52.580Z,7.90
2018-04-02T21:39:21.439Z,7.80
2018-04-02T21:41:50.619Z,7.80
2018-04-02T21:44:19.533Z,7.70
2018-04-02T21:46:48.446Z,7.70
2018-04-02T21:49:17.596Z,7.70
2018-04-02T21:51:47.524Z,7.70
2018-04-02T21:54:16.552Z,7.70
2018-04-02T21:56:45.495Z,7.30
2018-04-02T21:59:15.113Z,7.70
2018-04-02T22:01:45.645Z,7.80
2018-04-02T22:04:15.372Z,7.80
2018-04-02T22:06:56.134Z,7.80
2018-04-02T22:09:25.223Z,7.90
2018-04-02T22:11:54.985Z,7.90
2018-04-02T22:14:23.931Z,7.90
2018-04-02T22:16:52.990Z,7.90
2018-04-02T22:19:22.622Z,7.80
2018-04-02T22:21:52.417Z,7.90
2018-04-02T22:24:21.312Z,7.80
2018-04-02T22:26:51.076Z,7.70
2018-04-02T22:29:20.129Z,7.70
2018-04-02T22:31:49.143Z,7.70
2018-04-02T22:34:18.056Z,7.70
2018-04-02T22:36:47.085Z,7.60
2018-04-02T22:39:16.027Z,7.60
2018-04-02T22:41:44.868Z,7.60
2018-04-02T22:44:13.758Z,7.50
2018-04-02T22:46:43.376Z,7.40
2018-04-02T22:49:13.210Z,7.30
2018-04-02T22:51:42.280Z,7.30
2018-04-02T22:54:12.037Z,7.30
2018-04-02T22:56:40.987Z,7.30
2018-04-02T22:59:09.898Z,7.30
2018-04-02T23:01:39.017Z,7.20
2018-04-02T23:04:07.847Z,7.20
2018-04-02T23:06:37.498Z,7.00
2018-04-02T23:09:06.468Z,7.00
2018-04-02T23:11:36.221Z,7.00
2018-04-02T23:14:05.116Z,7.00
2018-04-02T23:16:34.593Z,7.00
2018-04-02T23:19:03.829Z,7.00
2018-04-02T23:21:32.958Z,6.90
2018-04-02T23:24:02.396Z,6.90
2018-04-02T23:26:31.374Z,6.80
2018-04-02T23:29:00.748Z,6.80
2018-04-02T23:31:30.440Z,6.70
2018-04-02T23:33:59.597Z,6.70
2018-04-02T23:36:28.744Z,6.80
2018-04-02T23:38:58.672Z,6.90
2018-04-02T23:41:27.687Z,6.90
2018-04-02T23:43:56.610Z,6.90
2018-04-02T23:46:25.548Z,7.00
2018-04-02T23:48:55.710Z,7.00
2018-04-02T23:51:25.862Z,7.00
2018-04-02T23:53:55.741Z,7.00
2018-04-02T23:56:24.726Z,7.00
2018-04-02T23:58:53.955Z,7.00
